Time,TemperatureF,DewpointF,PressureIn,WindDirection,WindDirectionDegrees,WindSpeedMPH,WindSpeedGustMPH,Humidity,HourlyPrecipIn,Conditions,Clouds,dailyrainin,SoftwareType,DateUTC
2013-01-02 00:00:00,36.0,24.0,29.97,NE,39,1.0,9.0,61,-99.99,,,-99.99,,2013-01-02 05:00:00,
2013-01-02 00:22:00,36.0,24.0,29.97,NE,39,1.0,9.0,61,-99.99,,,-99.99,,2013-01-02 05:22:00,
2013-01-02 00:33:00,36.0,24.0,29.97,NE,39,1.0,9.0,61,-99.99,,,-99.99,,2013-01-02 05:33:00,
2013-01-02 00:43:00,36.0,24.0,29.97,NE,39,1.0,9.0,61,-99.99,,,-99.99,,2013-01-02 05:43:00,
2013-01-02 00:53:00,36.0,24.0,29.97,NE,39,1.0,9.0,61,-99.99,,,-99.99,,2013-01-02 05:53:00,
2013-01-02 01:00:00,34.0,21.0,29.97,NE,37,9.0,-999.0,59,-99.99,,,-99.99,,2013-01-02 06:00:00,
2013-01-02 01:33:00,34.0,21.0,29.97,NE,37,9.0,-999.0,59,-99.99,,,-99.99,,2013-01-02 06:33:00,
2013-01-02 01:42:00,34.0,21.0,29.97,NE,37,9.0,-999.0,59,-99.99,,,-99.99,,2013-01-02 06:42:00,
2013-01-02 01:53:00,34.0,21.0,29.97,NE,37,9.0,-999.0,59,-99.99,,,-99.99,,2013-01-02 06:53:00,
2013-01-02 02:00:00,33.0,18.0,29.97,ENE,74,2.0,11.0,55,-99.99,,,-99.99,,2013-01-02 07:00:00,
2013-01-02 02:22:00,33.0,18.0,29.97,ENE,74,2.0,11.0,55,-99.99,,,-99.99,,2013-01-02 07:22:00,
2013-01-02 02:32:00,33.0,18.0,29.97,ENE,74,2.0,11.0,55,-99.99,,,-99.99,,2013-01-02 07:32:00,
2013-01-02 02:42:00,33.0,18.0,29.97,ENE,74,2.0,11.0,55,-99.99,,,-99.99,,2013-01-02 07:42:00,
2013-01-02 02:52:00,33.0,18.0,29.97,ENE,74,2.0,11.0,55,-99.99,,,-99.99,,2013-01-02 07:52:00,
2013-01-02 03:00:00,32.0,16.0,29.97,East,88,0.0,10.0,53,-99.99,,,-99.99,,2013-01-02 08:00:00,
2013-01-02 03:22:00,32.0,16.0,29.97,East,88,0.0,10.0,53,-99.99,,,-99.99,,2013-01-02 08:22:00,
2013-01-02 03:32:00,32.0,16.0,29.97,East,88,0.0,10.0,53,-99.99,,,-99.99,,2013-01-02 08:32:00,
2013-01-02 03:42:00,32.0,16.0,29.97,East,88,0.0,10.0,53,-99.99,,,-99.99,,2013-01-02 08:42:00,
2013-01-02 03:53:00,32.0,16.0,29.97,East,88,0.0,10.0,53,-99.99,,,-99.99,,2013-01-02 08:53:00,
2013-01-02 04:00:00,30.0,16.0,29.97,SE,129,0.0,10.0,56,-99.99,,,-99.99,,2013-01-02 09:00:00,
2013-01-02 04:22:00,30.0,16.0,29.97,SE,129,0.0,10.0,56,-99.99,,,-99.99,,2013-01-02 09:22:00,
2013-01-02 04:32:00,30.0,16.0,29.97,SE,129,0.0,10.0,56,-99.99,,,-99.99,,2013-01-02 09:32:00,
2013-01-02 04:43:00,30.0,16.0,29.97,SE,129,0.0,10.0,56,-99.99,,,-99.99,,2013-01-02 09:43:00,
2013-01-02 04:53:00,30.0,16.0,29.97,SE,129,0.0,10.0,56,-99.99,,,-99.99,,2013-01-02 09:53:00,
2013-01-02 05:00:00,29.0,15.0,30.00,SE,126,7.0,12.0,56,-99.99,,,-99.99,,2013-01-02 10:00:00,
2013-01-02 05:22:00,29.0,15.0,30.00,SE,126,7.0,12.0,56,-99.99,,,-99.99,,2013-01-02 10:22:00,
2013-01-02 05:32:00,29.0,15.0,30.00,SE,126,7.0,12.0,56,-99.99,,,-99.99,,2013-01-02 10:32:00,
2013-01-02 05:43:00,29.0,15.0,30.00,SE,126,7.0,12.0,56,-99.99,,,-99.99,,2013-01-02 10:43:00,
2013-01-02 05:53:00,29.0,15.0,30.00,SE,126,7.0,12.0,56,-99.99,,,-99.99,,2013-01-02 10:53:00,
2013-01-02 06:00:00,29.0,15.0,30.00,ESE,116,5.0,11.0,56,-99.99,,,-99.99,,2013-01-02 11:00:00,
2013-01-02 06:22:00,29.0,15.0,30.00,ESE,116,5.0,11.0,56,-99.99,,,-99.99,,2013-01-02 11:22:00,
2013-01-02 06:33:00,29.0,15.0,30.00,ESE,116,5.0,11.0,56,-99.99,,,-99.99,,2013-01-02 11:33:00,
2013-01-02 06:43:00,29.0,15.0,30.00,ESE,116,5.0,11.0,56,-99.99,,,-99.99,,2013-01-02 11:43:00,
2013-01-02 06:53:00,29.0,15.0,30.00,ESE,116,5.0,11.0,56,-99.99,,,-99.99,,2013-01-02 11:53:00,
2013-01-02 07:00:00,28.0,13.0,30.03,ESE,113,7.0,13.0,54,-99.99,,,-99.99,,2013-01-02 12:00:00,
2013-01-02 07:22:00,28.0,13.0,30.03,ESE,113,7.0,13.0,54,-99.99,,,-99.99,,2013-01-02 12:22:00,
2013-01-02 07:33:00,28.0,13.0,30.03,ESE,113,7.0,13.0,54,-99.99,,,-99.99,,2013-01-02 12:33:00,
2013-01-02 07:43:00,28.0,13.0,30.03,ESE,113,7.0,13.0,54,-99.99,,,-99.99,,2013-01-02 12:43:00,
2013-01-02 07:53:00,28.0,13.0,30.03,ESE,113,7.0,13.0,54,-99.99,,,-99.99,,2013-01-02 12:53:00,
2013-01-02 08:00:00,28.0,13.0,30.03,East,88,4.0,12.0,55,-99.99,,,-99.99,,2013-01-02 13:00:00,
2013-01-02 08:22:00,28.0,13.0,30.03,East,88,4.0,12.0,55,-99.99,,,-99.99,,2013-01-02 13:22:00,
2013-01-02 08:33:00,28.0,13.0,30.03,East,88,4.0,12.0,55,-99.99,,,-99.99,,2013-01-02 13:33:00,
2013-01-02 08:43:00,28.0,13.0,30.03,East,88,4.0,12.0,55,-99.99,,,-99.99,,2013-01-02 13:43:00,
2013-01-02 08:53:00,28.0,13.0,30.03,East,88,4.0,12.0,55,-99.99,,,-99.99,,2013-01-02 13:53:00,
2013-01-02 09:00:00,29.0,14.0,30.06,East,84,6.0,11.0,53,-99.99,,,-99.99,,2013-01-02 14:00:00,
2013-01-02 09:23:00,29.0,14.0,30.06,East,84,6.0,11.0,53,-99.99,,,-99.99,,2013-01-02 14:23:00,
2013-01-02 09:33:00,29.0,14.0,30.06,East,84,6.0,11.0,53,-99.99,,,-99.99,,2013-01-02 14:33:00,
2013-01-02 09:43:00,29.0,14.0,30.06,East,84,6.0,11.0,53,-99.99,,,-99.99,,2013-01-02 14:43:00,
2013-01-02 09:53:00,29.0,14.0,30.06,East,84,6.0,11.0,53,-99.99,,,-99.99,,2013-01-02 14:53:00,
2013-01-02 11:00:00,34.0,14.0,30.09,East,95,4.0,11.0,44,-99.99,,,-99.99,,2013-01-02 16:00:00,
2013-01-02 11:22:00,34.0,14.0,30.09,East,95,4.0,11.0,44,-99.99,,,-99.99,,2013-01-02 16:22:00,
2013-01-02 11:33:00,34.0,14.0,30.09,East,95,4.0,11.0,44,-99.99,,,-99.99,,2013-01-02 16:33:00,
2013-01-02 11:43:00,34.0,14.0,30.09,East,95,4.0,11.0,44,-99.99,,,-99.99,,2013-01-02 16:43:00,
2013-01-02 11:53:00,34.0,14.0,30.09,East,95,4.0,11.0,44,-99.99,,,-99.99,,2013-01-02 16:53:00,
2013-01-02 12:00:00,35.0,15.0,30.06,SE,134,2.0,9.0,44,-99.99,,,-99.99,,2013-01-02 17:00:00,
2013-01-02 12:23:00,35.0,15.0,30.06,SE,134,2.0,9.0,44,-99.99,,,-99.99,,2013-01-02 17:23:00,
2013-01-02 12:33:00,35.0,15.0,30.06,SE,134,2.0,9.0,44,-99.99,,,-99.99,,2013-01-02 17:33:00,
2013-01-02 12:43:00,35.0,15.0,30.06,SE,134,2.0,9.0,44,-99.99,,,-99.99,,2013-01-02 17:43:00,
2013-01-02 12:54:00,35.0,15.0,30.06,SE,134,2.0,9.0,44,-99.99,,,-99.99,,2013-01-02 17:54:00,
2013-01-02 13:00:00,36.0,15.0,30.03,South,184,0.0,9.0,41,-99.99,,,-99.99,,2013-01-02 18:00:00,
2013-01-02 13:23:00,36.0,15.0,30.03,South,184,0.0,9.0,41,-99.99,,,-99.99,,2013-01-02 18:23:00,
2013-01-02 13:33:00,36.0,15.0,30.03,South,184,0.0,9.0,41,-99.99,,,-99.99,,2013-01-02 18:33:00,
2013-01-02 13:43:00,36.0,15.0,30.03,South,184,0.0,9.0,41,-99.99,,,-99.99,,2013-01-02 18:43:00,
2013-01-02 13:53:00,36.0,15.0,30.03,South,184,0.0,9.0,41,-99.99,,,-99.99,,2013-01-02 18:53:00,
2013-01-02 14:00:00,36.0,13.0,30.03,SE,144,2.0,9.0,39,-99.99,,,-99.99,,2013-01-02 19:00:00,
2013-01-02 14:23:00,36.0,13.0,30.03,SE,144,2.0,9.0,39,-99.99,,,-99.99,,2013-01-02 19:23:00,
2013-01-02 14:33:00,36.0,13.0,30.03,SE,144,2.0,9.0,39,-99.99,,,-99.99,,2013-01-02 19:33:00,
2013-01-02 14:43:00,36.0,13.0,30.03,SE,144,2.0,9.0,39,-99.99,,,-99.99,,2013-01-02 19:43:00,
2013-01-02 14:53:00,36.0,13.0,30.03,SE,144,2.0,9.0,39,-99.99,,,-99.99,,2013-01-02 19:53:00,
2013-01-02 15:00:00,34.0,14.0,30.06,SSW,204,4.0,9.0,42,-99.99,,,-99.99,,2013-01-02 20:00:00,
2013-01-02 15:23:00,34.0,14.0,30.06,SSW,204,4.0,9.0,42,-99.99,,,-99.99,,2013-01-02 20:23:00,
2013-01-02 15:33:00,34.0,14.0,30.06,SSW,204,4.0,9.0,42,-99.99,,,-99.99,,2013-01-02 20:33:00,
2013-01-02 15:42:00,34.0,14.0,30.06,SSW,204,4.0,9.0,42,-99.99,,,-99.99,,2013-01-02 20:42:00,
2013-01-02 15:53:00,34.0,14.0,30.06,SSW,204,4.0,9.0,42,-99.99,,,-99.99,,2013-01-02 20:53:00,
2013-01-02 16:00:00,33.0,14.0,30.06,SSW,204,2.0,9.0,43,-99.99,,,-99.99,,2013-01-02 21:00:00,
2013-01-02 16:23:00,33.0,14.0,30.06,SSW,204,2.0,9.0,43,-99.99,,,-99.99,,2013-01-02 21:23:00,
2013-01-02 16:33:00,33.0,14.0,30.06,SSW,204,2.0,9.0,43,-99.99,,,-99.99,,2013-01-02 21:33:00,
2013-01-02 16:43:00,33.0,14.0,30.06,SSW,204,2.0,9.0,43,-99.99,,,-99.99,,2013-01-02 21:43:00,
2013-01-02 16:53:00,33.0,14.0,30.06,SSW,204,2.0,9.0,43,-99.99,,,-99.99,,2013-01-02 21:53:00,
2013-01-02 17:00:00,30.0,14.0,30.09,SW,216,6.0,12.0,50,-99.99,,,-99.99,,2013-01-02 22:00:00,
2013-01-02 17:22:00,30.0,14.0,30.09,SW,216,6.0,12.0,50,-99.99,,,-99.99,,2013-01-02 22:22:00,
2013-01-02 17:32:00,30.0,14.0,30.09,SW,216,6.0,12.0,50,-99.99,,,-99.99,,2013-01-02 22:32:00,
2013-01-02 17:43:00,30.0,14.0,30.09,SW,216,6.0,12.0,50,-99.99,,,-99.99,,2013-01-02 22:43:00,
2013-01-02 17:53:00,30.0,14.0,30.09,SW,216,6.0,12.0,50,-99.99,,,-99.99,,2013-01-02 22:53:00,
2013-01-02 18:00:00,29.0,14.0,30.12,SW,215,4.0,10.0,53,-99.99,,,-99.99,,2013-01-02 23:00:00,
2013-01-02 18:23:00,29.0,14.0,30.12,SW,215,4.0,10.0,53,-99.99,,,-99.99,,2013-01-02 23:23:00,
2013-01-02 18:33:00,29.0,14.0,30.12,SW,215,4.0,10.0,53,-99.99,,,-99.99,,2013-01-02 23:33:00,
2013-01-02 18:43:00,29.0,14.0,30.12,SW,215,4.0,10.0,53,-99.99,,,-99.99,,2013-01-02 23:43:00,
2013-01-02 18:53:00,29.0,14.0,30.12,SW,215,4.0,10.0,53,-99.99,,,-99.99,,2013-01-02 23:53:00,
2013-01-02 19:00:00,28.0,14.0,30.15,SSW,201,5.0,9.0,56,-99.99,,,-99.99,,2013-01-03 00:00:00,
2013-01-02 19:22:00,28.0,14.0,30.15,SSW,201,5.0,9.0,56,-99.99,,,-99.99,,2013-01-03 00:22:00,
2013-01-02 19:38:00,28.0,14.0,30.15,SSW,201,5.0,9.0,56,-99.99,,,-99.99,,2013-01-03 00:38:00,
2013-01-02 19:53:00,28.0,14.0,30.15,SSW,201,5.0,9.0,56,-99.99,,,-99.99,,2013-01-03 00:53:00,
2013-01-02 20:00:00,28.0,14.0,30.15,SSW,213,3.0,11.0,57,-99.99,,,-99.99,,2013-01-03 01:00:00,
2013-01-02 20:23:00,28.0,14.0,30.15,SSW,213,3.0,11.0,57,-99.99,,,-99.99,,2013-01-03 01:23:00,
2013-01-02 20:33:00,28.0,14.0,30.15,SSW,213,3.0,11.0,57,-99.99,,,-99.99,,2013-01-03 01:33:00,
2013-01-02 20:43:00,28.0,14.0,30.15,SSW,213,3.0,11.0,57,-99.99,,,-99.99,,2013-01-03 01:43:00,
2013-01-02 20:53:00,28.0,14.0,30.15,SSW,213,3.0,11.0,57,-99.99,,,-99.99,,2013-01-03 01:53:00,
2013-01-02 21:00:00,27.0,15.0,30.15,WSW,244,6.0,9.0,62,-99.99,,,-99.99,,2013-01-03 02:00:00,
2013-01-02 21:23:00,27.0,15.0,30.15,WSW,244,6.0,9.0,62,-99.99,,,-99.99,,2013-01-03 02:23:00,
2013-01-02 21:33:00,27.0,15.0,30.15,WSW,244,6.0,9.0,62,-99.99,,,-99.99,,2013-01-03 02:33:00,
2013-01-02 21:43:00,27.0,15.0,30.15,WSW,244,6.0,9.0,62,-99.99,,,-99.99,,2013-01-03 02:43:00,
2013-01-02 21:53:00,27.0,15.0,30.15,WSW,244,6.0,9.0,62,-99.99,,,-99.99,,2013-01-03 02:53:00,
2013-01-02 22:00:00,26.0,15.0,30.15,SW,225,5.0,11.0,64,-99.99,,,-99.99,,2013-01-03 03:00:00,
2013-01-02 22:22:00,26.0,15.0,30.15,SW,225,5.0,11.0,64,-99.99,,,-99.99,,2013-01-03 03:22:00,
2013-01-02 22:47:00,26.0,15.0,30.15,SW,225,5.0,11.0,64,-99.99,,,-99.99,,2013-01-03 03:47:00,
2013-01-02 22:53:00,26.0,15.0,30.15,SW,225,5.0,11.0,64,-99.99,,,-99.99,,2013-01-03 03:53:00,
2013-01-02 23:00:00,26.0,15.0,30.18,SW,219,6.0,11.0,64,-99.99,,,-99.99,,2013-01-03 04:00:00,
2013-01-02 23:22:00,26.0,15.0,30.18,SW,219,6.0,11.0,64,-99.99,,,-99.99,,2013-01-03 04:22:00,
2013-01-02 23:32:00,26.0,15.0,30.18,SW,219,6.0,11.0,64,-99.99,,,-99.99,,2013-01-03 04:32:00,
2013-01-02 23:43:00,26.0,15.0,30.18,SW,219,6.0,11.0,64,-99.99,,,-99.99,,2013-01-03 04:43:00,
2013-01-02 23:53:00,26.0,15.0,30.18,SW,219,6.0,11.0,64,-99.99,,,-99.99,,2013-01-03 04:53:00,